createdAt,value
2022-10-26T00:01:58.962Z,4.00
2022-10-26T00:04:28.616Z,4.03
2022-10-26T00:06:59.337Z,4.55
2022-10-26T00:09:28.927Z,3.88
2022-10-26T00:12:07.219Z,4.20
2022-10-26T00:14:34.681Z,4.65
2022-10-26T00:17:02.476Z,4.47
2022-10-26T00:19:33.012Z,4.65
2022-10-26T00:22:04.261Z,4.45
2022-10-26T00:24:33.727Z,4.45
2022-10-26T00:27:03.151Z,4.45
2022-10-26T00:29:30.437Z,4.18
2022-10-26T00:32:14.467Z,3.97
2022-10-26T00:34:41.936Z,4.60
2022-10-26T00:37:10.732Z,4.78
2022-10-26T00:39:40.988Z,4.70
2022-10-26T00:43:17.547Z,4.60
2022-10-26T00:45:23.107Z,4.22
2022-10-26T00:48:05.653Z,4.85
2022-10-26T00:50:54.158Z,4.13
2022-10-26T00:53:25.023Z,4.85
2022-10-26T00:55:59.796Z,4.85
2022-10-26T00:58:27.502Z,4.93
2022-10-26T01:01:03.964Z,4.38
2022-10-26T01:03:36.593Z,4.78
2022-10-26T01:06:08.161Z,4.78
2022-10-26T01:08:35.837Z,5.03
2022-10-26T01:11:13.478Z,4.93
2022-10-26T01:13:43.926Z,4.95
2022-10-26T01:16:33.286Z,4.80
2022-10-26T01:19:18.856Z,4.43
2022-10-26T01:21:53.876Z,5.18
2022-10-26T01:24:47.054Z,4.95
2022-10-26T01:27:29.488Z,5.55
2022-10-26T01:30:20.322Z,5.60
2022-10-26T01:33:12.791Z,6.05
2022-10-26T01:35:50.698Z,6.43
2022-10-26T01:38:52.287Z,6.63
2022-10-26T01:42:01.958Z,6.93
2022-10-26T01:44:48.971Z,6.93
2022-10-26T01:47:23.977Z,6.97
2022-10-26T01:50:02.161Z,7.50
2022-10-26T01:52:31.309Z,7.78
2022-10-26T01:55:47.966Z,7.28
2022-10-26T01:58:53.323Z,7.28
2022-10-26T02:01:41.357Z,7.28
2022-10-26T02:04:39.240Z,7.40
2022-10-26T02:07:41.624Z,7.68
2022-10-26T02:10:40.962Z,7.18
2022-10-26T02:13:18.856Z,8.05
2022-10-26T02:15:54.336Z,7.32
2022-10-26T02:19:10.306Z,7.13
2022-10-26T02:21:55.881Z,7.28
2022-10-26T02:24:25.136Z,7.32
2022-10-26T02:26:57.742Z,7.40
2022-10-26T02:29:33.777Z,7.40
2022-10-26T02:32:02.616Z,7.32
2022-10-26T02:34:38.047Z,7.15
2022-10-26T02:37:10.717Z,7.28
2022-10-26T02:39:49.182Z,7.15
2022-10-26T02:42:24.038Z,8.63
2022-10-26T02:45:03.686Z,7.18
2022-10-26T02:47:33.077Z,6.85
2022-10-26T02:50:03.296Z,7.28
2022-10-26T02:52:49.519Z,7.95
2022-10-26T02:55:34.543Z,7.40
2022-10-26T02:58:09.806Z,7.68
2022-10-26T03:00:37.178Z,7.35
2022-10-26T03:03:09.027Z,7.50
2022-10-26T03:05:45.092Z,7.15
2022-10-26T03:08:15.941Z,6.90
2022-10-26T03:10:46.332Z,7.15
2022-10-26T03:13:19.543Z,7.47
2022-10-26T03:15:59.759Z,8.60
2022-10-26T03:18:29.411Z,7.60
2022-10-26T03:21:01.611Z,7.68
2022-10-26T03:23:28.876Z,7.22
2022-10-26T03:26:02.156Z,7.22
2022-10-26T03:28:35.457Z,7.50
2022-10-26T03:31:06.436Z,7.72
2022-10-26T03:33:35.386Z,7.57
2022-10-26T03:36:02.673Z,7.00
2022-10-26T03:38:30.192Z,7.57
2022-10-26T03:41:12.003Z,7.47
2022-10-26T03:43:41.002Z,7.45
2022-10-26T03:46:27.996Z,7.00
2022-10-26T03:48:56.557Z,7.13
2022-10-26T03:51:23.786Z,7.20
2022-10-26T03:53:54.166Z,7.47
2022-10-26T03:56:21.496Z,6.97
2022-10-26T03:59:08.992Z,7.57
2022-10-26T04:01:37.637Z,7.68
2022-10-26T04:04:05.100Z,6.63
2022-10-26T04:06:34.424Z,7.35
2022-10-26T04:09:05.412Z,7.25
2022-10-26T04:11:32.736Z,7.47
2022-10-26T04:14:07.564Z,7.43
2022-10-26T04:16:37.881Z,7.03
2022-10-26T04:19:07.618Z,7.35
2022-10-26T04:21:42.637Z,7.30
2022-10-26T04:24:16.438Z,7.50
2022-10-26T04:26:46.282Z,6.90
2022-10-26T04:29:16.162Z,6.47
2022-10-26T04:34:13.908Z,7.28
2022-10-26T04:36:41.507Z,7.65
2022-10-26T04:39:11.371Z,7.60
2022-10-26T04:41:41.437Z,7.38
2022-10-26T04:44:18.047Z,7.57
2022-10-26T04:46:49.172Z,7.65
2022-10-26T04:49:18.719Z,7.82
2022-10-26T04:51:56.667Z,7.13
2022-10-26T04:54:24.073Z,6.95
2022-10-26T04:56:56.791Z,7.18
2022-10-26T04:59:24.033Z,7.32
2022-10-26T05:01:53.811Z,7.32
2022-10-26T05:04:22.478Z,7.78
2022-10-26T05:06:49.802Z,7.82
2022-10-26T05:09:17.788Z,7.82
2022-10-26T05:11:46.058Z,7.72
2022-10-26T05:14:18.194Z,7.93
2022-10-26T05:16:45.491Z,7.38
2022-10-26T05:19:17.762Z,7.63
2022-10-26T05:24:14.422Z,7.68
2022-10-26T05:26:46.983Z,7.65
2022-10-26T05:29:19.207Z,7.75
2022-10-26T05:31:48.907Z,7.75
2022-10-26T05:34:20.406Z,7.80
2022-10-26T05:36:47.531Z,7.47
2022-10-26T05:39:17.432Z,8.93
2022-10-26T05:41:44.542Z,8.40
2022-10-26T05:44:11.799Z,9.02
2022-10-26T05:46:40.141Z,8.60
2022-10-26T05:49:07.287Z,7.45
2022-10-26T05:51:35.277Z,7.90
2022-10-26T05:54:04.622Z,7.88
2022-10-26T05:56:37.972Z,8.20
2022-10-26T05:59:13.721Z,8.80
2022-10-26T06:02:09.408Z,8.50
2022-10-26T06:04:48.148Z,8.32
2022-10-26T06:07:20.557Z,8.40
2022-10-26T06:09:48.437Z,8.25
2022-10-26T06:12:19.266Z,9.02
2022-10-26T06:14:50.059Z,9.02
2022-10-26T06:17:54.482Z,8.32
2022-10-26T06:20:31.369Z,8.40
2022-10-26T06:23:35.757Z,8.40
2022-10-26T06:26:18.477Z,8.90
2022-10-26T06:29:11.073Z,9.52
2022-10-26T06:31:38.316Z,8.95
2022-10-26T06:34:05.655Z,8.82
2022-10-26T06:36:33.663Z,8.27
2022-10-26T06:39:04.691Z,8.65
2022-10-26T06:41:33.510Z,8.70
2022-10-26T06:44:03.668Z,7.95
2022-10-26T06:46:39.745Z,8.15
2022-10-26T06:49:15.906Z,8.48
2022-10-26T06:52:01.596Z,8.35
2022-10-26T06:54:50.446Z,8.52
2022-10-26T06:57:33.388Z,9.38
2022-10-26T07:00:22.110Z,10.07
2022-10-26T07:02:50.306Z,12.70
2022-10-26T07:05:20.379Z,11.95
2022-10-26T07:07:48.651Z,11.95
2022-10-26T07:10:18.096Z,10.77
2022-10-26T07:12:48.079Z,10.55
2022-10-26T07:15:19.288Z,10.60
2022-10-26T07:17:48.764Z,9.90
2022-10-26T07:20:20.917Z,9.73
2022-10-26T07:22:55.745Z,9.70
2022-10-26T07:25:26.957Z,10.10
2022-10-26T07:28:02.297Z,9.55
2022-10-26T07:30:31.348Z,8.98
2022-10-26T07:33:03.341Z,9.98
2022-10-26T07:35:30.537Z,9.48
2022-10-26T07:37:59.256Z,9.30
2022-10-26T07:40:27.139Z,10.13
2022-10-26T07:42:58.106Z,9.32
2022-10-26T07:45:25.887Z,10.10
2022-10-26T07:47:55.910Z,9.55
2022-10-26T07:50:26.137Z,10.23
2022-10-26T07:52:53.395Z,10.38
2022-10-26T07:55:21.061Z,10.43
2022-10-26T07:57:51.028Z,10.38
2022-10-26T08:00:21.015Z,10.18
2022-10-26T08:02:48.072Z,11.13
2022-10-26T08:05:15.188Z,12.75
2022-10-26T08:07:47.847Z,11.82
2022-10-26T08:10:19.227Z,11.23
2022-10-26T08:12:49.518Z,13.13
2022-10-26T08:15:20.897Z,11.48
2022-10-26T08:17:49.632Z,13.55
2022-10-26T08:20:17.038Z,11.25
2022-10-26T08:22:44.391Z,12.38
2022-10-26T08:25:13.732Z,12.05
2022-10-26T08:27:45.062Z,12.05
2022-10-26T08:30:15.047Z,12.52
2022-10-26T08:32:45.753Z,11.88
2022-10-26T08:35:14.460Z,13.95
2022-10-26T08:37:41.529Z,11.48
2022-10-26T08:40:16.008Z,11.85
2022-10-26T08:42:51.935Z,11.88
2022-10-26T08:45:36.611Z,13.40
2022-10-26T08:48:09.776Z,12.63
2022-10-26T08:50:52.797Z,12.10
2022-10-26T08:53:34.178Z,14.57
2022-10-26T08:56:09.321Z,12.70
2022-10-26T08:58:47.217Z,12.32
2022-10-26T09:01:16.407Z,12.38
2022-10-26T09:03:43.607Z,12.25
2022-10-26T09:06:14.566Z,15.27
2022-10-26T09:09:00.137Z,12.02
2022-10-26T09:11:43.766Z,12.88
2022-10-26T09:14:38.636Z,14.85
2022-10-26T09:17:11.846Z,12.02
2022-10-26T09:19:52.026Z,12.73
2022-10-26T09:22:35.292Z,12.40
2022-10-26T09:25:20.617Z,11.82
2022-10-26T09:28:01.535Z,11.63
2022-10-26T09:30:31.767Z,11.88
2022-10-26T09:33:22.587Z,11.77
2022-10-26T09:36:03.163Z,11.93
2022-10-26T09:38:43.916Z,11.50
2022-10-26T09:41:44.102Z,11.50
2022-10-26T09:44:27.215Z,10.73
2022-10-26T09:47:31.127Z,11.05
2022-10-26T09:50:12.892Z,12.70
2022-10-26T09:52:42.267Z,13.30
2022-10-26T09:55:12.662Z,12.68
2022-10-26T09:57:52.956Z,12.23
2022-10-26T10:00:22.941Z,13.88
2022-10-26T10:02:58.247Z,15.77
2022-10-26T10:05:52.035Z,13.02
2022-10-26T10:08:21.696Z,12.77
2022-10-26T10:10:55.706Z,13.73
2022-10-26T10:13:26.669Z,10.13
2022-10-26T10:16:12.336Z,13.63
2022-10-26T10:18:43.526Z,12.77
2022-10-26T10:21:12.911Z,14.85
2022-10-26T10:23:54.606Z,10.10
2022-10-26T10:26:21.767Z,11.68
2022-10-26T10:29:01.066Z,13.07
2022-10-26T10:31:33.439Z,11.45
2022-10-26T10:34:00.830Z,11.73
2022-10-26T10:36:30.400Z,11.05
2022-10-26T10:38:58.866Z,10.23
2022-10-26T10:41:36.725Z,10.20
2022-10-26T10:44:29.077Z,13.30
2022-10-26T10:47:16.383Z,11.65
2022-10-26T10:49:52.483Z,12.90
2022-10-26T10:52:33.928Z,13.77
2022-10-26T10:55:18.706Z,14.80
2022-10-26T10:58:21.496Z,15.95
2022-10-26T11:00:49.562Z,14.57
2022-10-26T11:03:57.221Z,15.77
2022-10-26T11:06:31.866Z,15.75
2022-10-26T11:09:14.347Z,15.52
2022-10-26T11:11:53.251Z,16.38
2022-10-26T11:14:35.675Z,16.23
2022-10-26T11:17:26.179Z,16.88
2022-10-26T11:19:59.031Z,16.98
2022-10-26T11:22:52.504Z,16.40
2022-10-26T11:28:55.822Z,17.15
2022-10-26T11:31:38.146Z,17.00
2022-10-26T11:34:16.441Z,15.30
2022-10-26T11:36:52.971Z,14.93
2022-10-26T11:39:36.068Z,16.15
2022-10-26T11:42:28.621Z,13.75
2022-10-26T11:45:17.386Z,14.57
2022-10-26T11:47:53.776Z,15.85
2022-10-26T11:50:27.741Z,16.42
2022-10-26T11:53:04.316Z,14.55
2022-10-26T11:55:33.240Z,15.65
2022-10-26T11:58:02.996Z,15.40
2022-10-26T12:00:31.543Z,15.80
2022-10-26T12:03:14.625Z,14.57
2022-10-26T12:05:46.237Z,15.45
2022-10-26T12:08:37.634Z,13.82
2022-10-26T12:11:50.540Z,14.38
2022-10-26T12:14:34.861Z,15.25
2022-10-26T12:17:08.461Z,13.65
2022-10-26T12:19:49.369Z,13.23
2022-10-26T12:22:19.256Z,15.07
2022-10-26T12:25:04.487Z,14.52
2022-10-26T12:27:56.649Z,13.35
2022-10-26T12:30:28.286Z,14.57
2022-10-26T12:33:04.236Z,14.40
2022-10-26T12:35:42.948Z,14.35
2022-10-26T12:38:26.234Z,13.20
2022-10-26T12:41:08.819Z,14.55
2022-10-26T12:43:41.284Z,13.70
2022-10-26T12:46:14.248Z,14.88
2022-10-26T12:48:46.426Z,14.48
2022-10-26T12:51:19.555Z,14.98
2022-10-26T12:54:15.311Z,15.10
2022-10-26T12:56:51.137Z,16.70
2022-10-26T12:59:32.476Z,16.52
2022-10-26T13:02:13.646Z,16.92
2022-10-26T13:04:55.544Z,17.75
2022-10-26T13:07:36.688Z,16.90
2022-10-26T13:10:12.272Z,17.67
2022-10-26T13:12:59.938Z,18.50
2022-10-26T13:15:38.856Z,16.48
2022-10-26T13:18:20.750Z,16.92
2022-10-26T13:21:08.671Z,14.13
2022-10-26T13:23:41.476Z,15.40
2022-10-26T13:26:18.277Z,14.55
2022-10-26T13:28:58.817Z,16.20
2022-10-26T13:31:28.931Z,13.77
2022-10-26T13:37:08.035Z,13.63
2022-10-26T13:39:51.497Z,13.23
2022-10-26T13:42:26.597Z,14.27
2022-10-26T13:45:17.932Z,13.75
2022-10-26T13:47:47.441Z,13.63
2022-10-26T13:50:21.491Z,14.77
2022-10-26T13:52:52.141Z,14.98
2022-10-26T13:55:37.299Z,13.75
2022-10-26T13:58:31.136Z,12.93
2022-10-26T14:01:10.592Z,11.68
2022-10-26T14:03:40.300Z,9.52
2022-10-26T14:06:15.881Z,14.05
2022-10-26T14:08:46.541Z,13.65
2022-10-26T14:11:19.797Z,14.88
2022-10-26T14:13:49.715Z,15.07
2022-10-26T14:16:25.007Z,15.90
2022-10-26T14:18:58.221Z,18.05
2022-10-26T14:21:25.437Z,17.33
2022-10-26T14:23:58.417Z,17.40
2022-10-26T14:26:32.776Z,17.27
2022-10-26T14:29:04.607Z,17.05
2022-10-26T14:31:34.109Z,17.23
2022-10-26T14:34:04.636Z,15.57
2022-10-26T14:36:42.770Z,16.38
2022-10-26T14:39:31.068Z,18.02
2022-10-26T14:41:59.806Z,17.52
2022-10-26T14:44:30.036Z,17.88
2022-10-26T14:46:57.226Z,16.60
2022-10-26T14:49:27.718Z,17.45
2022-10-26T14:52:00.749Z,15.93
2022-10-26T14:54:30.129Z,17.25
2022-10-26T14:56:57.410Z,17.70
2022-10-26T14:59:30.332Z,15.63
2022-10-26T15:02:17.542Z,14.77
2022-10-26T15:05:19.028Z,15.82
2022-10-26T15:07:48.812Z,14.73
2022-10-26T15:10:37.639Z,15.48
2022-10-26T15:13:46.641Z,15.75
2022-10-26T15:16:19.571Z,18.02
2022-10-26T15:18:49.281Z,16.92
2022-10-26T15:21:34.366Z,16.50
2022-10-26T15:24:02.381Z,11.57
2022-10-26T15:26:30.404Z,15.60
2022-10-26T15:28:57.636Z,15.82
2022-10-26T15:31:30.741Z,15.98
2022-10-26T15:34:12.561Z,15.13
2022-10-26T15:36:43.803Z,15.10
2022-10-26T15:39:10.939Z,13.25
2022-10-26T15:41:47.838Z,15.75
2022-10-26T15:44:20.407Z,13.85
2022-10-26T15:46:47.996Z,13.18
2022-10-26T15:49:20.473Z,12.20
2022-10-26T15:51:48.928Z,12.60
2022-10-26T15:54:16.356Z,12.13
2022-10-26T15:56:46.079Z,13.20
2022-10-26T15:59:20.661Z,14.88
2022-10-26T16:01:48.007Z,16.33
2022-10-26T16:04:15.214Z,15.65
2022-10-26T16:06:44.991Z,13.35
2022-10-26T16:09:19.291Z,15.23
2022-10-26T16:11:46.477Z,14.18
2022-10-26T16:14:14.947Z,13.68
2022-10-26T16:16:44.532Z,12.77
2022-10-26T16:19:31.443Z,11.05
2022-10-26T16:22:01.288Z,11.70
2022-10-26T16:24:30.442Z,13.20
2022-10-26T16:26:58.236Z,13.60
2022-10-26T16:29:25.411Z,14.40
2022-10-26T16:31:52.596Z,14.07
2022-10-26T16:34:19.676Z,12.07
2022-10-26T16:36:46.717Z,14.80
2022-10-26T16:39:16.916Z,14.05
2022-10-26T16:41:43.971Z,13.93
2022-10-26T16:44:13.841Z,14.30
2022-10-26T16:46:40.917Z,15.52
2022-10-26T16:49:08.097Z,13.80
2022-10-26T16:51:35.267Z,14.30
2022-10-26T16:54:02.382Z,16.05
2022-10-26T16:56:30.658Z,13.90
2022-10-26T16:58:58.058Z,14.95
2022-10-26T17:01:25.713Z,14.90
2022-10-26T17:03:53.514Z,14.38
2022-10-26T17:06:20.730Z,13.07
2022-10-26T17:08:47.863Z,12.02
2022-10-26T17:11:19.743Z,11.27
2022-10-26T17:13:47.866Z,10.70
2022-10-26T17:16:17.898Z,10.20
2022-10-26T17:18:47.372Z,10.38
2022-10-26T17:21:18.567Z,9.80
2022-10-26T17:23:46.256Z,9.02
2022-10-26T17:26:17.069Z,9.18
2022-10-26T17:28:44.489Z,9.32
2022-10-26T17:31:15.150Z,9.02
2022-10-26T17:33:44.732Z,9.18
2022-10-26T17:36:13.775Z,8.32
2022-10-26T17:38:42.191Z,8.95
2022-10-26T17:41:18.617Z,7.80
2022-10-26T17:43:46.866Z,7.88
2022-10-26T17:46:19.712Z,8.40
2022-10-26T17:48:47.146Z,7.43
2022-10-26T17:51:19.878Z,8.65
2022-10-26T17:53:48.691Z,8.32
2022-10-26T17:56:19.129Z,9.85
2022-10-26T17:58:50.827Z,8.15
2022-10-26T18:01:23.868Z,8.82
2022-10-26T18:03:54.027Z,8.65
2022-10-26T18:06:21.847Z,8.50
2022-10-26T18:08:51.352Z,8.20
2022-10-26T18:11:26.926Z,8.90
2022-10-26T18:13:58.330Z,8.88
2022-10-26T18:16:27.181Z,9.45
2022-10-26T18:19:00.694Z,10.18
2022-10-26T18:21:30.699Z,8.55
2022-10-26T18:23:58.938Z,9.23
2022-10-26T18:26:30.614Z,8.23
2022-10-26T18:28:59.291Z,8.38
2022-10-26T18:31:27.871Z,8.70
2022-10-26T18:33:59.517Z,7.85
2022-10-26T18:36:27.805Z,7.90
2022-10-26T18:38:55.626Z,8.55
2022-10-26T18:41:24.356Z,8.15
2022-10-26T18:43:59.019Z,7.95
2022-10-26T18:46:29.049Z,8.20
2022-10-26T18:48:57.986Z,7.75
2022-10-26T18:51:33.904Z,9.30
2022-10-26T18:54:01.512Z,7.88
2022-10-26T18:56:29.725Z,8.15
2022-10-26T18:58:59.012Z,8.45
2022-10-26T19:01:45.739Z,7.20
2022-10-26T19:04:13.056Z,8.32
2022-10-26T19:06:45.556Z,7.07
2022-10-26T19:09:13.216Z,9.23
2022-10-26T19:11:43.716Z,8.20
2022-10-26T19:14:12.512Z,7.97
2022-10-26T19:16:45.852Z,8.55
2022-10-26T19:19:14.645Z,8.07
2022-10-26T19:21:44.408Z,8.10
2022-10-26T19:24:14.368Z,9.02
2022-10-26T19:26:43.837Z,8.35
2022-10-26T19:29:16.479Z,8.80
2022-10-26T19:31:49.818Z,9.00
2022-10-26T19:34:17.701Z,8.18
2022-10-26T19:36:47.540Z,8.38
2022-10-26T19:39:17.848Z,8.50
2022-10-26T19:41:47.160Z,7.97
2022-10-26T19:44:15.622Z,7.70
2022-10-26T19:46:44.123Z,7.97
2022-10-26T19:49:15.253Z,8.55
2022-10-26T19:51:44.667Z,8.27
2022-10-26T19:54:11.939Z,8.55
2022-10-26T19:56:39.110Z,8.32
2022-10-26T19:59:09.007Z,8.82
2022-10-26T20:01:37.313Z,8.90
2022-10-26T20:04:07.461Z,7.88
2022-10-26T20:06:34.735Z,7.88
2022-10-26T20:09:04.159Z,8.40
2022-10-26T20:11:34.427Z,8.40
2022-10-26T20:14:01.551Z,8.80
2022-10-26T20:16:28.706Z,8.88
2022-10-26T20:18:55.831Z,8.75
2022-10-26T20:21:22.891Z,8.30
2022-10-26T20:23:50.098Z,8.63
2022-10-26T20:26:19.829Z,7.53
2022-10-26T20:28:51.219Z,8.27
2022-10-26T20:31:18.662Z,8.50
2022-10-26T20:33:48.803Z,8.18
2022-10-26T20:36:15.897Z,8.13
2022-10-26T20:38:43.222Z,7.72
2022-10-26T20:41:14.866Z,7.97
2022-10-26T20:43:42.843Z,8.77
2022-10-26T20:46:20.423Z,8.02
2022-10-26T20:48:51.271Z,8.45
2022-10-26T20:51:40.011Z,8.98
2022-10-26T20:54:29.087Z,8.07
2022-10-26T20:56:59.763Z,8.00
2022-10-26T20:59:42.106Z,8.52
2022-10-26T21:02:12.856Z,8.63
2022-10-26T21:04:41.316Z,8.43
2022-10-26T21:07:11.736Z,8.52
2022-10-26T21:09:38.862Z,8.65
2022-10-26T21:12:06.132Z,8.85
2022-10-26T21:14:39.672Z,8.65
2022-10-26T21:17:14.431Z,9.30
2022-10-26T21:19:41.996Z,8.93
2022-10-26T21:22:10.468Z,8.68
2022-10-26T21:24:37.544Z,8.50
2022-10-26T21:27:04.597Z,8.40
2022-10-26T21:29:31.717Z,8.18
2022-10-26T21:31:58.870Z,7.70
2022-10-26T21:34:25.997Z,8.23
2022-10-26T21:36:53.126Z,7.78
2022-10-26T21:39:20.482Z,7.95
2022-10-26T21:41:49.887Z,8.30
2022-10-26T21:44:38.856Z,7.93
2022-10-26T21:47:06.396Z,8.30
2022-10-26T21:49:33.528Z,8.55
2022-10-26T21:52:00.761Z,8.50
2022-10-26T21:54:28.248Z,8.38
2022-10-26T21:56:55.296Z,8.23
2022-10-26T21:59:24.977Z,9.18
2022-10-26T22:01:52.317Z,8.10
2022-10-26T22:04:19.671Z,7.93
2022-10-26T22:06:48.007Z,7.47
2022-10-26T22:09:15.171Z,7.35
2022-10-26T22:11:42.356Z,7.22
2022-10-26T22:14:12.038Z,7.50
2022-10-26T22:16:39.107Z,8.20
2022-10-26T22:19:11.381Z,7.65
2022-10-26T22:21:40.401Z,8.15
2022-10-26T22:24:08.930Z,7.40
2022-10-26T22:26:37.736Z,7.97
2022-10-26T22:29:05.491Z,7.22
2022-10-26T22:31:35.743Z,7.47
2022-10-26T22:34:07.736Z,7.32
2022-10-26T22:36:35.477Z,7.45
2022-10-26T22:39:02.811Z,8.27
2022-10-26T22:41:31.480Z,7.43
2022-10-26T22:43:58.676Z,7.93
2022-10-26T22:46:27.996Z,7.63
2022-10-26T22:49:04.403Z,7.72
2022-10-26T22:51:33.866Z,7.28
2022-10-26T22:54:02.353Z,7.65
2022-10-26T22:56:33.610Z,7.13
2022-10-26T22:59:03.246Z,7.45
2022-10-26T23:01:36.713Z,7.60
2022-10-26T23:04:04.088Z,7.13
2022-10-26T23:06:32.426Z,7.18
2022-10-26T23:08:59.887Z,7.80
2022-10-26T23:11:29.086Z,7.05
2022-10-26T23:14:00.691Z,7.25
2022-10-26T23:16:28.957Z,7.10
2022-10-26T23:18:56.514Z,7.88
2022-10-26T23:23:57.994Z,7.05
2022-10-26T23:26:27.333Z,7.53
2022-10-26T23:28:54.569Z,7.55
2022-10-26T23:31:26.457Z,7.68
2022-10-26T23:33:55.742Z,8.43
2022-10-26T23:36:23.408Z,8.02
2022-10-26T23:38:50.916Z,8.05
2022-10-26T23:41:18.016Z,7.90
2022-10-26T23:43:46.476Z,7.78
2022-10-26T23:46:15.943Z,7.68
2022-10-26T23:48:44.397Z,7.40
2022-10-26T23:51:11.531Z,7.70
2022-10-26T23:53:38.724Z,8.50
2022-10-26T23:56:09.687Z,8.43
2022-10-26T23:58:39.403Z,8.25
